Time;durP1;ratioP1;P1;durP2;ratioP2;P2;SDS_P1;SDS_P2;PMS_P1;PMS_P2;Temp;Humidity;BMP_temperature;BMP_pressure;BME280_temperature;BME280_humidity;BME280_pressure;Samples;Min_cycle;Max_cycle;Signal;HPM_P1;HPM_P2
2021/01/28 00:00:29;;;;;;;;;;;5.20;99.90;;;;;;4978246;28;19914;-82
2021/01/28 00:02:56;;;;;;;;;;;5.20;99.90;;;;;;4972212;28;20315;-82
2021/01/28 00:05:22;;;;;;;;;;;5.20;99.90;;;;;;4955647;28;19964;-82
2021/01/28 00:07:48;;;;;;;;;;;5.10;99.90;;;;;;4970981;28;19910;-82
2021/01/28 00:10:14;;;;;;;;;;;5.20;99.90;;;;;;4981576;28;20548;-81
2021/01/28 00:12:39;;;;;;;;;;;5.20;99.90;;;;;;4960872;28;19932;-82
2021/01/28 00:15:06;;;;;;;;;;;5.20;99.90;;;;;;4955896;28;19921;-82
2021/01/28 00:17:31;;;;;;;;;;;5.20;99.90;;;;;;4971996;28;19935;-82
2021/01/28 00:19:57;;;;;;;;;;;5.20;99.90;;;;;;4955348;28;20367;-82
2021/01/28 00:22:22;;;;;;;;;;;5.20;99.90;;;;;;4955164;28;19957;-82
2021/01/28 00:24:48;;;;;;;;;;;5.20;99.90;;;;;;4957086;28;19925;-82
2021/01/28 00:27:13;;;;;;;;;;;5.30;99.90;;;;;;4975955;28;19935;-82
2021/01/28 00:29:39;;;;;;;;;;;5.20;99.90;;;;;;4969434;28;20012;-82
2021/01/28 00:32:05;;;;;;;;;;;5.20;99.90;;;;;;4958067;28;19968;-82
2021/01/28 00:34:31;;;;;;;;;;;5.20;99.90;;;;;;4992702;28;20366;-82
2021/01/28 00:36:57;;;;;;;;;;;5.20;99.90;;;;;;4994539;28;19921;-82
2021/01/28 00:39:22;;;;;;;;;;;5.20;99.90;;;;;;4986900;28;20327;-83
2021/01/28 00:41:48;;;;;;;;;;;5.30;99.90;;;;;;4975322;28;19914;-82
2021/01/28 00:44:14;;;;;;;;;;;5.30;99.90;;;;;;4983921;28;19917;-82
2021/01/28 00:46:40;;;;;;;;;;;5.20;99.90;;;;;;4993942;28;19932;-82
2021/01/28 00:49:05;;;;;;;;;;;5.20;99.90;;;;;;4975806;28;19921;-82
2021/01/28 00:51:32;;;;;;;;;;;5.20;99.90;;;;;;4976893;28;19914;-82
2021/01/28 00:53:58;;;;;;;;;;;5.20;99.90;;;;;;4999228;28;19981;-82
2021/01/28 00:56:23;;;;;;;;;;;5.20;99.90;;;;;;4999546;28;19964;-82
2021/01/28 00:58:50;;;;;;;;;;;5.20;99.90;;;;;;4977011;28;19918;-82
2021/01/28 01:01:15;;;;;;;;;;;5.10;99.90;;;;;;4993428;28;19928;-82
2021/01/28 01:03:41;;;;;;;;;;;5.20;99.90;;;;;;4983665;28;19921;-82
2021/01/28 01:06:06;;;;;;;;;;;5.20;99.90;;;;;;4988467;28;20008;-82
2021/01/28 01:08:35;;;;;;;;;;;5.20;99.90;;;;;;4991277;28;19937;-82
2021/01/28 01:11:02;;;;;;;;;;;5.10;99.90;;;;;;4973539;28;19918;-82
2021/01/28 01:13:29;;;;;;;;;;;5.20;99.90;;;;;;4974280;28;20437;-82
2021/01/28 01:15:56;;;;;;;;;;;5.10;99.90;;;;;;4982175;28;20362;-82
2021/01/28 01:18:23;;;;;;;;;;;5.20;99.90;;;;;;5001428;28;20002;-82
2021/01/28 01:20:49;;;;;;;;;;;5.20;99.90;;;;;;4992845;28;19920;-82
2021/01/28 01:23:14;;;;;;;;;;;5.20;99.90;;;;;;4992959;28;19956;-82
2021/01/28 01:25:40;;;;;;;;;;;5.20;99.90;;;;;;4989927;28;20020;-82
2021/01/28 01:28:06;;;;;;;;;;;5.20;99.90;;;;;;4974107;28;19968;-82
2021/01/28 01:30:31;;;;;;;;;;;5.10;99.90;;;;;;5009876;28;20378;-82
2021/01/28 01:32:57;;;;;;;;;;;5.10;99.90;;;;;;4979674;28;19925;-82
2021/01/28 01:35:23;;;;;;;;;;;5.20;99.90;;;;;;4987028;28;19920;-82
2021/01/28 01:37:49;;;;;;;;;;;5.10;99.90;;;;;;4992151;28;19938;-84
2021/01/28 01:40:18;;;;;;;;;;;5.10;99.90;;;;;;4963672;28;19953;-82
2021/01/28 01:42:46;;;;;;;;;;;5.10;99.90;;;;;;4955858;28;19914;-82
2021/01/28 01:45:11;;;;;;;;;;;5.10;99.90;;;;;;4958683;28;20025;-82
2021/01/28 01:47:40;;;;;;;;;;;5.10;99.90;;;;;;4964799;28;19921;-82
2021/01/28 01:50:06;;;;;;;;;;;5.10;99.90;;;;;;4957604;28;19914;-83
2021/01/28 01:52:32;;;;;;;;;;;5.00;99.90;;;;;;4953576;28;19914;-82
2021/01/28 01:54:58;;;;;;;;;;;5.10;99.90;;;;;;4966671;28;19960;-82
2021/01/28 01:57:26;;;;;;;;;;;5.10;99.90;;;;;;4965128;28;19980;-82
2021/01/28 02:00:00;;;;;;;;;;;5.10;99.90;;;;;;4969172;28;19960;-83
2021/01/28 02:02:26;;;;;;;;;;;5.10;99.90;;;;;;4956419;28;19925;-82
2021/01/28 02:04:56;;;;;;;;;;;5.10;99.90;;;;;;4960553;28;20318;-82
2021/01/28 02:07:22;;;;;;;;;;;5.00;99.90;;;;;;4953140;28;19922;-82
2021/01/28 02:09:49;;;;;;;;;;;5.00;99.90;;;;;;4988067;28;19936;-82
2021/01/28 02:12:14;;;;;;;;;;;5.00;99.90;;;;;;4993493;28;19925;-83
2021/01/28 02:14:40;;;;;;;;;;;5.10;99.90;;;;;;4992268;28;19917;-82
2021/01/28 02:17:06;;;;;;;;;;;5.10;99.90;;;;;;4989368;28;19921;-82
2021/01/28 02:19:50;;;;;;;;;;;5.00;99.90;;;;;;4981677;28;20256;-83
2021/01/28 02:22:18;;;;;;;;;;;5.00;99.90;;;;;;4976687;28;19914;-82
2021/01/28 02:24:47;;;;;;;;;;;5.00;99.90;;;;;;4986709;28;19961;-81
2021/01/28 02:27:13;;;;;;;;;;;5.00;99.90;;;;;;4987708;28;19928;-82
2021/01/28 02:29:39;;;;;;;;;;;5.00;99.90;;;;;;4991891;28;19914;-82
2021/01/28 02:32:05;;;;;;;;;;;5.00;99.90;;;;;;4989104;28;20371;-82
2021/01/28 02:34:31;;;;;;;;;;;5.00;99.90;;;;;;4985404;28;20008;-82
2021/01/28 02:36:56;;;;;;;;;;;5.00;99.90;;;;;;4991203;28;19924;-82
2021/01/28 02:39:27;;;;;;;;;;;4.90;99.90;;;;;;4978952;28;19922;-82
2021/01/28 02:42:05;;;;;;;;;;;4.90;99.90;;;;;;4991212;28;19914;-82
2021/01/28 02:44:30;;;;;;;;;;;4.90;99.90;;;;;;4978632;28;20290;-82
2021/01/28 02:46:57;;;;;;;;;;;4.90;99.90;;;;;;4982861;28;19921;-82
2021/01/28 02:49:23;;;;;;;;;;;4.80;99.90;;;;;;4991746;28;20398;-83
2021/01/28 02:51:48;;;;;;;;;;;4.80;99.90;;;;;;4992228;28;19964;-83
2021/01/28 02:54:14;;;;;;;;;;;4.70;99.90;;;;;;4991508;28;19925;-82
2021/01/28 02:56:39;;;;;;;;;;;4.70;99.90;;;;;;4973768;28;19924;-82
2021/01/28 02:59:06;;;;;;;;;;;4.60;99.90;;;;;;4980513;28;20281;-82
2021/01/28 03:01:32;;;;;;;;;;;4.60;99.90;;;;;;4990719;28;20012;-82
2021/01/28 03:03:58;;;;;;;;;;;4.60;99.90;;;;;;4993286;28;19918;-82
2021/01/28 03:06:23;;;;;;;;;;;4.50;99.90;;;;;;4975374;28;19977;-83
2021/01/28 03:08:49;;;;;;;;;;;4.50;99.90;;;;;;4980351;28;19910;-82
2021/01/28 03:11:14;;;;;;;;;;;4.40;99.90;;;;;;5012180;28;19960;-82
2021/01/28 03:13:40;;;;;;;;;;;4.40;99.90;;;;;;4990268;28;19933;-82
2021/01/28 03:16:05;;;;;;;;;;;4.40;99.90;;;;;;4984169;28;19976;-83
2021/01/28 03:18:31;;;;;;;;;;;4.40;99.90;;;;;;4994052;28;19914;-82
2021/01/28 03:20:56;;;;;;;;;;;4.40;99.90;;;;;;4983819;28;19910;-82
2021/01/28 03:23:22;;;;;;;;;;;4.30;99.90;;;;;;5010470;28;19920;-82
2021/01/28 03:25:47;;;;;;;;;;;4.30;99.90;;;;;;4983502;28;19980;-82
2021/01/28 03:28:13;;;;;;;;;;;4.30;99.90;;;;;;4993601;28;20012;-82
2021/01/28 03:30:42;;;;;;;;;;;4.30;99.90;;;;;;4997475;28;19921;-82
2021/01/28 03:33:08;;;;;;;;;;;4.20;99.90;;;;;;4988473;28;19917;-82
2021/01/28 03:35:35;;;;;;;;;;;4.20;99.90;;;;;;4987672;28;19914;-82
2021/01/28 03:38:01;;;;;;;;;;;4.20;99.90;;;;;;4995201;28;20016;-82
2021/01/28 03:40:27;;;;;;;;;;;4.20;99.90;;;;;;4995079;28;20008;-83
2021/01/28 03:42:53;;;;;;;;;;;4.20;99.90;;;;;;4995246;28;19914;-82
2021/01/28 03:45:18;;;;;;;;;;;4.10;99.90;;;;;;4994343;28;19925;-82
2021/01/28 03:47:44;;;;;;;;;;;4.10;99.90;;;;;;4978566;28;19914;-82
2021/01/28 03:50:11;;;;;;;;;;;4.00;99.90;;;;;;4976723;28;19945;-82
2021/01/28 03:52:37;;;;;;;;;;;4.00;99.90;;;;;;4983107;28;20346;-82
2021/01/28 03:55:02;;;;;;;;;;;3.90;99.90;;;;;;4992992;28;19935;-82
2021/01/28 03:57:28;;;;;;;;;;;3.80;99.90;;;;;;4994855;28;20004;-83
2021/01/28 03:59:53;;;;;;;;;;;3.70;99.90;;;;;;5011582;28;19945;-83
2021/01/28 04:02:19;;;;;;;;;;;3.80;99.90;;;;;;4975643;28;19933;-83
2021/01/28 04:04:44;;;;;;;;;;;3.80;99.90;;;;;;4975755;28;19917;-82
2021/01/28 04:07:10;;;;;;;;;;;3.80;99.90;;;;;;4975692;28;19961;-82
2021/01/28 04:09:37;;;;;;;;;;;3.80;99.90;;;;;;4974972;28;20260;-82
2021/01/28 04:12:02;;;;;;;;;;;3.90;99.90;;;;;;4973333;28;19914;-82
2021/01/28 04:14:28;;;;;;;;;;;3.90;99.90;;;;;;4972971;28;19944;-82
2021/01/28 04:16:53;;;;;;;;;;;3.80;99.90;;;;;;4973138;28;19936;-83
2021/01/28 04:19:20;;;;;;;;;;;3.80;99.90;;;;;;4993348;28;20278;-83
2021/01/28 04:21:45;;;;;;;;;;;3.80;99.90;;;;;;4981484;28;20374;-82
2021/01/28 04:24:11;;;;;;;;;;;3.80;99.90;;;;;;4985404;28;19921;-82
2021/01/28 04:26:36;;;;;;;;;;;3.80;99.90;;;;;;4991238;28;20374;-82
2021/01/28 04:29:03;;;;;;;;;;;3.80;99.90;;;;;;4974304;28;19937;-82
2021/01/28 04:31:28;;;;;;;;;;;3.70;99.90;;;;;;4989847;28;19922;-82
2021/01/28 04:33:54;;;;;;;;;;;3.70;99.90;;;;;;4975302;28;19971;-82
2021/01/28 04:36:20;;;;;;;;;;;3.70;99.90;;;;;;4977538;28;19921;-82
2021/01/28 04:38:45;;;;;;;;;;;3.60;99.90;;;;;;4981396;28;19918;-83
2021/01/28 04:41:14;;;;;;;;;;;3.60;99.90;;;;;;4978103;28;19920;-82
2021/01/28 04:43:39;;;;;;;;;;;3.60;99.90;;;;;;4956693;28;20021;-82
2021/01/28 04:46:09;;;;;;;;;;;3.60;99.90;;;;;;4973229;28;20403;-83
2021/01/28 04:48:35;;;;;;;;;;;3.60;99.90;;;;;;4950868;29;19914;-82
2021/01/28 04:51:02;;;;;;;;;;;3.70;99.90;;;;;;4935459;29;19917;-82
2021/01/28 04:53:36;;;;;;;;;;;3.70;99.90;;;;;;4936850;28;20024;-82
2021/01/28 04:56:03;;;;;;;;;;;3.80;99.90;;;;;;4942252;29;19915;-82
2021/01/28 04:58:28;;;;;;;;;;;3.90;99.90;;;;;;4928719;29;19918;-82
2021/01/28 05:00:53;;;;;;;;;;;3.80;99.90;;;;;;4928162;29;19926;-83
2021/01/28 05:03:21;;;;;;;;;;;3.80;99.90;;;;;;4934257;29;20350;-82
2021/01/28 05:05:49;;;;;;;;;;;3.80;99.90;;;;;;4950101;29;19922;-82
2021/01/28 05:08:15;;;;;;;;;;;3.90;99.90;;;;;;4950710;28;19914;-82
2021/01/28 05:10:44;;;;;;;;;;;3.90;99.90;;;;;;4954051;28;20381;-82
2021/01/28 05:13:10;;;;;;;;;;;4.00;99.90;;;;;;4933743;29;19986;-83
2021/01/28 05:15:41;;;;;;;;;;;4.00;99.90;;;;;;4931753;29;20312;-82
2021/01/28 05:18:09;;;;;;;;;;;4.00;99.90;;;;;;4942800;28;20013;-83
2021/01/28 05:20:35;;;;;;;;;;;4.10;99.90;;;;;;4975586;28;19909;-82
2021/01/28 05:23:05;;;;;;;;;;;4.10;99.90;;;;;;4978395;28;19979;-82
2021/01/28 05:25:33;;;;;;;;;;;4.10;99.90;;;;;;4995226;28;19898;-82
2021/01/28 05:27:59;;;;;;;;;;;4.10;99.90;;;;;;4999086;28;19945;-81
2021/01/28 05:30:39;;;;;;;;;;;4.10;99.90;;;;;;4994433;28;19946;-82
2021/01/28 05:33:22;;;;;;;;;;;4.10;99.90;;;;;;5011696;28;19925;-83
2021/01/28 05:35:59;;;;;;;;;;;4.10;99.90;;;;;;5000912;28;19921;-82
2021/01/28 05:38:26;;;;;;;;;;;4.00;99.90;;;;;;4992209;28;19940;-82
2021/01/28 05:40:53;;;;;;;;;;;4.00;99.90;;;;;;4973087;28;19937;-82
2021/01/28 05:43:31;;;;;;;;;;;4.00;99.90;;;;;;4978345;28;19910;-82
2021/01/28 05:46:15;;;;;;;;;;;4.00;99.90;;;;;;4974303;28;19929;-82
2021/01/28 05:48:41;;;;;;;;;;;3.90;99.90;;;;;;4992800;28;19917;-82
2021/01/28 05:51:10;;;;;;;;;;;4.00;99.90;;;;;;4990621;28;19925;-82
2021/01/28 05:53:35;;;;;;;;;;;4.00;99.90;;;;;;4975314;28;19914;-81
2021/01/28 05:56:03;;;;;;;;;;;4.00;99.90;;;;;;4973956;28;19914;-82
2021/01/28 05:58:34;;;;;;;;;;;4.00;99.90;;;;;;4975193;28;20016;-83
2021/01/28 06:01:26;;;;;;;;;;;4.00;99.90;;;;;;4972259;28;20390;-82
2021/01/28 06:03:57;;;;;;;;;;;3.90;99.90;;;;;;4937244;29;20050;-82
2021/01/28 06:06:41;;;;;;;;;;;3.90;99.90;;;;;;4953287;28;19943;-82
2021/01/28 06:09:25;;;;;;;;;;;3.90;99.90;;;;;;4936885;29;19922;-82
2021/01/28 06:12:09;;;;;;;;;;;3.80;99.90;;;;;;4945381;28;19961;-82
2021/01/28 06:14:37;;;;;;;;;;;3.80;99.90;;;;;;4944970;28;19966;-82
2021/01/28 06:17:29;;;;;;;;;;;3.80;99.90;;;;;;4947648;28;20284;-82
2021/01/28 06:20:15;;;;;;;;;;;3.80;99.90;;;;;;4874786;29;20100;-82
2021/01/28 06:22:46;;;;;;;;;;;3.80;99.90;;;;;;4885708;29;20461;-82
2021/01/28 06:25:26;;;;;;;;;;;3.80;99.90;;;;;;4891994;29;20536;-82
2021/01/28 06:27:57;;;;;;;;;;;3.80;99.90;;;;;;4875237;29;19923;-82
2021/01/28 06:30:28;;;;;;;;;;;3.70;99.90;;;;;;4873450;29;19943;-82
2021/01/28 06:33:11;;;;;;;;;;;3.70;99.90;;;;;;4888323;29;20386;-82
2021/01/28 06:35:43;;;;;;;;;;;3.70;99.90;;;;;;4891350;29;20303;-82
2021/01/28 06:38:25;;;;;;;;;;;3.60;99.90;;;;;;4886950;29;19965;-82
2021/01/28 06:40:52;;;;;;;;;;;3.60;99.90;;;;;;4898247;29;20384;-82
2021/01/28 06:43:38;;;;;;;;;;;3.60;99.90;;;;;;4885456;29;20354;-81
2021/01/28 06:46:13;;;;;;;;;;;3.60;99.90;;;;;;4891095;29;20001;-83
2021/01/28 06:48:42;;;;;;;;;;;3.60;99.90;;;;;;4897958;29;19919;-83
2021/01/28 06:51:44;;;;;;;;;;;3.60;99.90;;;;;;4903183;29;19944;-82
2021/01/28 06:54:19;;;;;;;;;;;3.60;99.90;;;;;;4878057;29;19997;-82
2021/01/28 06:56:59;;;;;;;;;;;3.60;99.90;;;;;;4909436;29;19914;-81
2021/01/28 06:59:35;;;;;;;;;;;3.60;99.90;;;;;;4919251;29;19918;-81
2021/01/28 07:02:02;;;;;;;;;;;3.60;99.90;;;;;;4918964;29;20403;-82
2021/01/28 07:04:41;;;;;;;;;;;3.50;99.90;;;;;;4936092;29;19915;-83
2021/01/28 07:07:13;;;;;;;;;;;3.50;99.90;;;;;;4934502;29;20566;-83
2021/01/28 07:09:50;;;;;;;;;;;3.50;99.90;;;;;;4924456;29;20423;-83
2021/01/28 07:12:19;;;;;;;;;;;3.50;99.90;;;;;;4919247;29;19915;-82
2021/01/28 07:14:48;;;;;;;;;;;3.50;99.90;;;;;;4936923;29;19983;-82
2021/01/28 07:17:19;;;;;;;;;;;3.50;99.90;;;;;;4922358;28;19997;-83
2021/01/28 07:19:50;;;;;;;;;;;3.50;99.90;;;;;;4935475;29;19915;-82
2021/01/28 07:22:18;;;;;;;;;;;3.50;99.90;;;;;;4918397;29;20009;-82
2021/01/28 07:24:43;;;;;;;;;;;3.50;99.90;;;;;;4936760;29;19954;-83
2021/01/28 07:27:10;;;;;;;;;;;3.40;99.90;;;;;;4924949;28;19976;-83
2021/01/28 07:29:50;;;;;;;;;;;3.40;99.90;;;;;;4991650;28;20008;-83
2021/01/28 07:32:21;;;;;;;;;;;3.30;99.90;;;;;;4971910;28;19924;-83
2021/01/28 07:35:05;;;;;;;;;;;3.40;99.90;;;;;;4995948;28;19914;-83
2021/01/28 07:37:31;;;;;;;;;;;3.40;99.90;;;;;;4991471;28;20651;-82
2021/01/28 07:39:56;;;;;;;;;;;3.30;99.90;;;;;;4973223;28;19924;-82
2021/01/28 07:42:22;;;;;;;;;;;3.30;99.90;;;;;;4962813;28;19914;-82
2021/01/28 07:44:53;;;;;;;;;;;3.30;99.90;;;;;;4966229;28;19954;-82
2021/01/28 07:47:30;;;;;;;;;;;3.30;99.90;;;;;;4942755;28;20024;-82
2021/01/28 07:50:16;;;;;;;;;;;3.30;99.90;;;;;;4962917;28;19969;-82
2021/01/28 07:52:42;;;;;;;;;;;3.20;99.90;;;;;;4968635;28;19930;-82
2021/01/28 07:55:26;;;;;;;;;;;3.20;99.90;;;;;;4954309;28;19966;-86
2021/01/28 07:57:54;;;;;;;;;;;3.10;99.90;;;;;;4971692;28;19937;-86
2021/01/28 08:00:22;;;;;;;;;;;3.00;99.90;;;;;;4955986;28;19914;-81
2021/01/28 08:03:03;;;;;;;;;;;2.90;99.90;;;;;;4956462;28;19933;-82
2021/01/28 08:05:28;;;;;;;;;;;2.90;99.90;;;;;;4949821;28;20367;-82
2021/01/28 08:08:05;;;;;;;;;;;2.90;99.90;;;;;;4954312;28;19953;-83
2021/01/28 08:10:38;;;;;;;;;;;2.80;99.90;;;;;;4963793;28;19941;-83
2021/01/28 08:13:04;;;;;;;;;;;2.80;99.90;;;;;;4963167;28;19946;-83
2021/01/28 08:15:30;;;;;;;;;;;2.90;99.90;;;;;;4951706;28;19957;-83
2021/01/28 08:18:00;;;;;;;;;;;2.90;99.90;;;;;;4956318;28;19945;-82
2021/01/28 08:20:26;;;;;;;;;;;2.80;99.90;;;;;;4953672;28;19939;-82
2021/01/28 08:22:52;;;;;;;;;;;2.70;99.90;;;;;;4968948;28;19921;-82
2021/01/28 08:25:18;;;;;;;;;;;2.70;99.90;;;;;;4947294;28;19914;-82
2021/01/28 08:27:44;;;;;;;;;;;2.50;99.90;;;;;;4949024;28;19961;-82
2021/01/28 08:30:15;;;;;;;;;;;2.60;99.90;;;;;;4947318;28;19914;-83
2021/01/28 08:32:43;;;;;;;;;;;2.50;99.90;;;;;;4950012;28;19926;-82
2021/01/28 08:35:15;;;;;;;;;;;2.50;99.90;;;;;;4950882;28;20368;-82
2021/01/28 08:37:40;;;;;;;;;;;2.60;99.90;;;;;;4946971;28;19929;-82
2021/01/28 08:40:12;;;;;;;;;;;2.70;99.90;;;;;;4965237;28;20001;-83
2021/01/28 08:42:38;;;;;;;;;;;2.80;99.90;;;;;;4950699;28;19915;-83
2021/01/28 08:45:17;;;;;;;;;;;2.80;99.90;;;;;;4948140;28;19922;-82
2021/01/28 08:47:53;;;;;;;;;;;2.90;99.90;;;;;;4948879;28;19930;-82
2021/01/28 08:50:20;;;;;;;;;;;2.90;99.90;;;;;;4963738;28;19915;-82
2021/01/28 08:52:46;;;;;;;;;;;2.90;99.90;;;;;;4947511;28;20036;-82
2021/01/28 08:55:23;;;;;;;;;;;2.80;99.90;;;;;;4951533;28;21219;-82
2021/01/28 08:57:50;;;;;;;;;;;2.70;99.90;;;;;;4927666;29;19914;-83
2021/01/28 09:00:19;;;;;;;;;;;2.70;99.90;;;;;;4940978;28;19925;-82
2021/01/28 09:02:47;;;;;;;;;;;2.80;99.90;;;;;;4932956;29;19935;-82
2021/01/28 09:05:23;;;;;;;;;;;2.70;99.90;;;;;;4934951;28;19922;-82
2021/01/28 09:07:59;;;;;;;;;;;2.80;99.90;;;;;;4932551;28;19929;-83
2021/01/28 09:10:40;;;;;;;;;;;2.70;99.90;;;;;;4952270;28;19922;-83
2021/01/28 09:13:21;;;;;;;;;;;2.70;99.90;;;;;;4948199;28;19961;-83
2021/01/28 09:15:48;;;;;;;;;;;2.70;99.90;;;;;;4944418;28;19923;-83
2021/01/28 09:18:34;;;;;;;;;;;2.70;99.90;;;;;;4938564;28;20355;-82
2021/01/28 09:21:05;;;;;;;;;;;2.70;99.90;;;;;;4931099;29;19922;-83
2021/01/28 09:23:31;;;;;;;;;;;2.80;99.90;;;;;;4947588;28;19922;-82
2021/01/28 09:26:19;;;;;;;;;;;2.80;99.90;;;;;;4930628;28;19993;-82
2021/01/28 09:28:46;;;;;;;;;;;2.80;99.90;;;;;;4953761;28;19997;-83
2021/01/28 09:31:25;;;;;;;;;;;2.70;99.90;;;;;;4948201;28;20009;-82
2021/01/28 09:33:51;;;;;;;;;;;2.80;99.90;;;;;;4949667;28;20314;-82
2021/01/28 09:36:19;;;;;;;;;;;3.00;99.90;;;;;;4968995;28;19929;-82
2021/01/28 09:39:05;;;;;;;;;;;3.00;99.90;;;;;;4968298;28;19928;-83
2021/01/28 09:41:41;;;;;;;;;;;3.10;99.90;;;;;;4963743;28;20402;-83
2021/01/28 09:44:29;;;;;;;;;;;3.00;99.90;;;;;;4888384;29;19927;-82
2021/01/28 09:47:05;;;;;;;;;;;3.10;99.90;;;;;;4879054;29;20459;-83
2021/01/28 09:49:31;;;;;;;;;;;3.20;99.90;;;;;;4883101;29;20038;-82
2021/01/28 09:51:59;;;;;;;;;;;3.30;99.90;;;;;;4888688;29;20229;-83
2021/01/28 09:54:25;;;;;;;;;;;3.20;99.90;;;;;;4889946;29;19923;-83
2021/01/28 09:56:50;;;;;;;;;;;3.30;99.90;;;;;;4851465;29;20338;-80
2021/01/28 09:59:16;;;;;;;;;;;3.40;99.90;;;;;;4847786;29;20277;-84
2021/01/28 10:01:42;;;;;;;;;;;3.50;99.90;;;;;;4830284;29;19939;-82
2021/01/28 10:04:08;;;;;;;;;;;3.30;99.90;;;;;;4847030;29;19927;-82
2021/01/28 10:06:34;;;;;;;;;;;3.30;99.90;;;;;;4852630;29;19928;-83
2021/01/28 10:08:59;;;;;;;;;;;3.30;99.90;;;;;;4852874;29;19924;-83
2021/01/28 10:11:25;;;;;;;;;;;3.30;99.90;;;;;;4854372;29;19915;-83
2021/01/28 10:13:51;;;;;;;;;;;3.30;99.90;;;;;;4855420;29;19926;-83
2021/01/28 10:16:16;;;;;;;;;;;3.30;99.90;;;;;;4891147;29;20393;-83
2021/01/28 10:18:42;;;;;;;;;;;3.20;99.90;;;;;;4910521;29;19937;-83
2021/01/28 10:21:08;;;;;;;;;;;3.20;99.90;;;;;;4913538;28;19922;-83
2021/01/28 10:23:35;;;;;;;;;;;3.20;99.90;;;;;;4942764;28;19937;-83
2021/01/28 10:26:01;;;;;;;;;;;3.10;99.90;;;;;;4944654;28;19923;-83
2021/01/28 10:28:26;;;;;;;;;;;3.10;99.90;;;;;;4956918;28;19924;-83
2021/01/28 10:30:53;;;;;;;;;;;3.30;99.90;;;;;;4993976;28;19920;-82
2021/01/28 10:33:19;;;;;;;;;;;3.30;99.90;;;;;;4976651;28;20379;-82
2021/01/28 10:35:46;;;;;;;;;;;3.30;99.90;;;;;;4966649;28;20021;-83
2021/01/28 10:38:11;;;;;;;;;;;3.40;99.90;;;;;;4971430;28;20327;-83
2021/01/28 10:40:37;;;;;;;;;;;3.40;99.90;;;;;;4990233;28;19914;-83
2021/01/28 10:43:04;;;;;;;;;;;3.40;99.90;;;;;;4971969;28;20428;-82
2021/01/28 10:45:31;;;;;;;;;;;3.30;99.90;;;;;;4970226;28;20318;-82
2021/01/28 10:47:59;;;;;;;;;;;3.30;99.90;;;;;;4985304;28;19917;-83
2021/01/28 10:50:25;;;;;;;;;;;3.40;99.90;;;;;;4966046;28;19921;-82
2021/01/28 10:52:52;;;;;;;;;;;3.40;99.90;;;;;;4970410;28;19924;-82
2021/01/28 10:55:19;;;;;;;;;;;3.60;99.90;;;;;;4989261;28;19928;-83
2021/01/28 10:57:44;;;;;;;;;;;3.70;99.90;;;;;;4987494;28;19918;-83
2021/01/28 11:00:10;;;;;;;;;;;3.70;99.90;;;;;;4993428;28;19996;-82
2021/01/28 11:02:37;;;;;;;;;;;3.70;99.90;;;;;;4984468;28;19925;-83
2021/01/28 11:05:04;;;;;;;;;;;3.80;99.90;;;;;;4953803;28;19929;-82
2021/01/28 11:07:30;;;;;;;;;;;3.70;99.90;;;;;;4986091;28;19923;-82
2021/01/28 11:09:57;;;;;;;;;;;3.80;99.90;;;;;;4998399;28;19919;-81
2021/01/28 11:12:23;;;;;;;;;;;3.80;99.90;;;;;;4971862;28;20059;-82
2021/01/28 11:14:48;;;;;;;;;;;3.70;99.90;;;;;;4997127;28;19920;-82
2021/01/28 11:17:14;;;;;;;;;;;3.60;99.90;;;;;;4977013;28;19922;-82
2021/01/28 11:19:39;;;;;;;;;;;3.70;99.90;;;;;;4976033;28;19921;-82
2021/01/28 11:22:05;;;;;;;;;;;3.60;99.90;;;;;;4969812;28;19928;-82
2021/01/28 11:24:30;;;;;;;;;;;3.50;99.90;;;;;;4988955;28;19972;-82
2021/01/28 11:27:00;;;;;;;;;;;3.60;99.90;;;;;;4992111;28;19926;-83
2021/01/28 11:29:25;;;;;;;;;;;3.60;99.90;;;;;;4966722;28;20219;-83
2021/01/28 11:31:51;;;;;;;;;;;3.60;99.90;;;;;;4990585;28;19936;-83
2021/01/28 11:34:17;;;;;;;;;;;3.70;99.90;;;;;;4971145;28;19917;-82
2021/01/28 11:36:42;;;;;;;;;;;3.60;99.90;;;;;;4975833;28;19950;-84
2021/01/28 11:39:11;;;;;;;;;;;3.60;99.90;;;;;;4972329;28;20008;-83
2021/01/28 11:41:36;;;;;;;;;;;3.60;99.90;;;;;;4927578;28;19986;-83
2021/01/28 11:44:02;;;;;;;;;;;3.70;99.90;;;;;;4927030;29;19969;-83
2021/01/28 11:46:27;;;;;;;;;;;3.70;99.90;;;;;;4928540;28;19928;-84
2021/01/28 11:48:53;;;;;;;;;;;3.60;99.90;;;;;;4925769;29;20001;-82
2021/01/28 11:51:18;;;;;;;;;;;3.60;99.90;;;;;;4908691;29;20143;-83
2021/01/28 11:53:44;;;;;;;;;;;3.70;99.90;;;;;;4908460;29;20050;-83
2021/01/28 11:56:09;;;;;;;;;;;3.70;99.90;;;;;;4910703;29;19919;-83
2021/01/28 11:58:35;;;;;;;;;;;3.70;99.90;;;;;;4899181;29;20400;-83
2021/01/28 12:01:00;;;;;;;;;;;3.80;99.90;;;;;;4916809;29;19998;-83
2021/01/28 12:03:26;;;;;;;;;;;3.80;99.90;;;;;;4890686;29;19966;-83
2021/01/28 12:05:51;;;;;;;;;;;3.80;99.90;;;;;;4874622;29;19963;-82
2021/01/28 12:08:17;;;;;;;;;;;3.90;99.90;;;;;;4887042;29;20397;-83
2021/01/28 12:10:43;;;;;;;;;;;3.80;99.90;;;;;;4871864;29;19924;-82
2021/01/28 12:13:14;;;;;;;;;;;3.70;99.90;;;;;;4889136;29;20091;-83
2021/01/28 12:15:40;;;;;;;;;;;3.90;99.90;;;;;;4905893;29;20009;-82
2021/01/28 12:18:06;;;;;;;;;;;3.80;99.90;;;;;;4889610;29;20855;-82
2021/01/28 12:20:32;;;;;;;;;;;3.60;99.90;;;;;;4880737;29;19971;-81
2021/01/28 12:22:57;;;;;;;;;;;3.60;99.90;;;;;;4867262;29;20720;-82
2021/01/28 12:25:23;;;;;;;;;;;3.60;99.90;;;;;;4841493;29;19924;-84
2021/01/28 12:27:49;;;;;;;;;;;3.70;99.90;;;;;;4855675;29;20038;-84
2021/01/28 12:30:17;;;;;;;;;;;3.80;99.90;;;;;;4878358;29;19919;-86
2021/01/28 12:32:42;;;;;;;;;;;3.70;99.90;;;;;;4897556;29;19923;-87
2021/01/28 12:35:10;;;;;;;;;;;3.70;99.90;;;;;;4914132;29;20380;-83
2021/01/28 12:37:35;;;;;;;;;;;3.70;99.90;;;;;;4909415;29;19923;-83
2021/01/28 12:40:02;;;;;;;;;;;3.80;99.90;;;;;;4913188;29;19927;-82
2021/01/28 12:42:27;;;;;;;;;;;3.80;99.90;;;;;;4921497;29;20019;-83
2021/01/28 12:44:53;;;;;;;;;;;3.70;99.90;;;;;;4916638;29;19968;-83
2021/01/28 12:47:19;;;;;;;;;;;3.80;99.90;;;;;;4894272;29;19931;-83
2021/01/28 12:49:44;;;;;;;;;;;3.80;99.90;;;;;;4909033;29;19923;-83
2021/01/28 12:52:10;;;;;;;;;;;3.80;99.90;;;;;;4908318;29;19922;-84
2021/01/28 12:54:35;;;;;;;;;;;4.00;99.90;;;;;;4929650;28;19918;-81
2021/01/28 12:57:01;;;;;;;;;;;4.10;99.90;;;;;;4946117;28;20367;-83
2021/01/28 12:59:26;;;;;;;;;;;4.10;99.90;;;;;;4968657;28;19953;-83
2021/01/28 13:01:52;;;;;;;;;;;4.00;99.90;;;;;;4963003;28;20457;-83
2021/01/28 13:04:17;;;;;;;;;;;3.80;99.90;;;;;;4948957;28;20587;-83
2021/01/28 13:06:43;;;;;;;;;;;3.80;99.90;;;;;;4951751;28;19922;-83
2021/01/28 13:09:08;;;;;;;;;;;3.80;99.90;;;;;;4947644;28;19936;-83
2021/01/28 13:11:34;;;;;;;;;;;3.80;99.90;;;;;;4950745;28;19921;-83
2021/01/28 13:13:59;;;;;;;;;;;3.70;99.90;;;;;;4966807;28;19957;-83
2021/01/28 13:16:26;;;;;;;;;;;3.90;99.90;;;;;;4966455;28;19937;-83
2021/01/28 13:18:52;;;;;;;;;;;4.10;99.90;;;;;;4978415;28;19968;-82
2021/01/28 13:21:19;;;;;;;;;;;4.00;99.90;;;;;;4977525;28;20359;-84
2021/01/28 13:23:44;;;;;;;;;;;3.80;99.90;;;;;;4992398;28;19929;-83
2021/01/28 13:26:10;;;;;;;;;;;3.80;99.90;;;;;;4994902;28;19930;-83
2021/01/28 13:28:35;;;;;;;;;;;3.80;99.90;;;;;;4976549;28;20059;-83
2021/01/28 13:31:01;;;;;;;;;;;3.80;99.90;;;;;;4978675;28;19936;-82
2021/01/28 13:33:26;;;;;;;;;;;3.80;99.90;;;;;;4973886;28;20405;-83
2021/01/28 13:35:52;;;;;;;;;;;3.80;99.90;;;;;;4975182;28;20389;-83
2021/01/28 13:38:17;;;;;;;;;;;3.70;99.90;;;;;;4948219;28;19915;-82
2021/01/28 13:40:43;;;;;;;;;;;3.70;99.90;;;;;;4945990;28;19914;-83
2021/01/28 13:43:09;;;;;;;;;;;3.60;99.90;;;;;;4947954;28;19914;-83
2021/01/28 13:45:35;;;;;;;;;;;3.60;99.90;;;;;;4954204;28;19921;-83
2021/01/28 13:48:03;;;;;;;;;;;3.60;99.90;;;;;;4958583;28;20348;-82
2021/01/28 13:50:31;;;;;;;;;;;3.60;99.90;;;;;;4944185;28;20031;-83
2021/01/28 13:52:59;;;;;;;;;;;3.70;99.90;;;;;;4948011;28;19970;-83
2021/01/28 13:55:30;;;;;;;;;;;3.90;99.90;;;;;;4966133;28;19903;-82
2021/01/28 13:57:56;;;;;;;;;;;3.90;99.90;;;;;;4962039;28;20015;-82
2021/01/28 14:00:22;;;;;;;;;;;3.90;99.90;;;;;;4943964;28;19914;-82
2021/01/28 14:02:48;;;;;;;;;;;3.80;99.90;;;;;;4948541;28;19959;-82
2021/01/28 14:05:14;;;;;;;;;;;3.80;99.90;;;;;;4916970;29;19923;-85
2021/01/28 14:07:39;;;;;;;;;;;4.00;99.90;;;;;;4921422;29;19985;-87
2021/01/28 14:10:06;;;;;;;;;;;4.10;99.90;;;;;;4933926;29;19914;-82
2021/01/28 14:12:31;;;;;;;;;;;4.10;99.90;;;;;;4940805;29;19918;-82
2021/01/28 14:14:57;;;;;;;;;;;4.00;99.90;;;;;;4945381;29;19930;-82
2021/01/28 14:17:22;;;;;;;;;;;3.80;99.90;;;;;;4918197;29;20017;-83
2021/01/28 14:19:51;;;;;;;;;;;3.80;99.90;;;;;;4925479;29;19915;-82
2021/01/28 14:22:16;;;;;;;;;;;3.90;99.90;;;;;;4927837;29;20005;-82
2021/01/28 14:24:44;;;;;;;;;;;3.90;99.90;;;;;;4937089;29;20333;-82
2021/01/28 14:27:11;;;;;;;;;;;3.80;99.90;;;;;;4925644;29;19922;-82
2021/01/28 14:29:37;;;;;;;;;;;3.80;99.90;;;;;;4948666;28;19964;-83
2021/01/28 14:32:02;;;;;;;;;;;3.90;99.90;;;;;;4935566;28;20048;-82
2021/01/28 14:34:28;;;;;;;;;;;3.90;99.90;;;;;;4934995;28;19957;-81
2021/01/28 14:36:53;;;;;;;;;;;3.90;99.90;;;;;;4978139;28;20310;-82